createdAt,value
2018-12-19T00:01:33.294Z,98299.25
2018-12-19T00:04:36.515Z,98304.84
2018-12-19T00:07:39.772Z,98304.03
2018-12-19T00:10:43.028Z,98306.58
2018-12-19T00:13:46.282Z,98294.55
2018-12-19T00:16:49.512Z,98299.96
2018-12-19T00:19:52.737Z,98295.75
2018-12-19T00:22:55.969Z,98291.73
2018-12-19T00:25:59.193Z,98283.36
2018-12-19T00:29:02.441Z,98273.39
2018-12-19T00:32:05.657Z,98276.47
2018-12-19T00:35:08.892Z,98269.39
2018-12-19T00:38:12.140Z,98263.38
2018-12-19T00:41:15.398Z,98272.63
2018-12-19T00:44:18.620Z,98273.23
2018-12-19T00:47:21.865Z,98277.34
2018-12-19T00:50:25.125Z,98265.17
2018-12-19T00:53:28.378Z,98259.05
2018-12-19T00:56:31.592Z,98259.77
2018-12-19T00:59:34.832Z,98258.29
2018-12-19T01:02:38.080Z,98272.28
2018-12-19T01:05:41.305Z,98263.25
2018-12-19T01:08:44.535Z,98249.31
2018-12-19T01:11:47.755Z,98252.09
2018-12-19T01:14:50.983Z,98253.06
2018-12-19T01:17:54.288Z,98254.78
2018-12-19T01:20:57.518Z,98259.45
2018-12-19T01:24:00.757Z,98265.74
2018-12-19T01:27:04.001Z,98268.98
2018-12-19T01:30:07.321Z,98268.40
2018-12-19T01:33:10.554Z,98270.91
2018-12-19T01:36:13.776Z,98268.12
2018-12-19T01:39:22.501Z,98266.21
2018-12-19T01:42:22.240Z,98269.22
2018-12-19T01:45:25.478Z,98285.77
2018-12-19T01:48:28.785Z,98261.38
2018-12-19T01:51:32.133Z,98257.87
2018-12-19T01:54:35.367Z,98262.78
2018-12-19T01:57:38.585Z,98249.02
2018-12-19T02:00:41.820Z,98252.62
2018-12-19T02:03:45.047Z,98282.04
2018-12-19T02:06:48.276Z,98270.80
2018-12-19T02:09:51.592Z,98269.48
2018-12-19T02:12:54.817Z,98251.38
2018-12-19T02:15:58.048Z,98285.64
2018-12-19T02:19:01.271Z,98272.27
2018-12-19T02:22:04.533Z,98286.03
2018-12-19T02:25:07.828Z,98281.83
2018-12-19T02:28:11.051Z,98259.05
2018-12-19T02:31:14.338Z,98252.98
2018-12-19T02:34:17.593Z,98230.36
2018-12-19T02:37:20.812Z,98235.64
2018-12-19T02:40:24.040Z,98250.92
2018-12-19T02:43:27.387Z,98247.14
2018-12-19T02:46:30.596Z,98247.37
2018-12-19T02:49:33.838Z,98236.38
2018-12-19T02:52:37.135Z,98237.02
2018-12-19T02:55:40.364Z,98242.36
2018-12-19T02:58:43.609Z,98249.09
2018-12-19T03:01:46.834Z,98243.44
2018-12-19T03:04:50.073Z,98239.88
2018-12-19T03:07:53.292Z,98248.59
2018-12-19T03:10:56.978Z,98243.72
2018-12-19T03:14:00.236Z,98243.80
2018-12-19T03:17:03.598Z,98242.22
2018-12-19T03:20:06.852Z,98245.33
2018-12-19T03:23:10.081Z,98238.71
2018-12-19T03:26:13.296Z,98224.44
2018-12-19T03:29:16.529Z,98220.33
2018-12-19T03:32:19.783Z,98218.56
2018-12-19T03:35:23.152Z,98223.26
2018-12-19T03:38:26.532Z,98229.45
2018-12-19T03:41:29.841Z,98224.66
2018-12-19T03:44:33.123Z,98238.47
2018-12-19T03:47:36.351Z,98233.69
2018-12-19T03:50:39.616Z,98225.30
2018-12-19T03:53:42.847Z,98220.10
2018-12-19T03:56:46.683Z,98219.83
2018-12-19T03:59:49.922Z,98216.45
2018-12-19T04:02:53.252Z,98216.96
2018-12-19T04:05:56.604Z,98216.14
2018-12-19T04:08:59.804Z,98220.20
2018-12-19T04:12:03.384Z,98225.34
2018-12-19T04:15:06.672Z,98228.58
2018-12-19T04:18:09.973Z,98223.52
2018-12-19T04:21:13.254Z,98228.90
2018-12-19T04:24:16.519Z,98229.27
2018-12-19T04:27:19.792Z,98217.72
2018-12-19T04:30:23.118Z,98217.36
2018-12-19T04:33:26.491Z,98230.97
2018-12-19T04:36:29.704Z,98222.71
2018-12-19T04:39:32.985Z,98224.25
2018-12-19T04:42:36.227Z,98221.39
2018-12-19T04:45:39.448Z,98230.02
2018-12-19T04:48:42.673Z,98236.98
2018-12-19T04:51:45.958Z,98233.23
2018-12-19T04:54:49.295Z,98231.03
2018-12-19T04:57:52.609Z,98230.64
2018-12-19T05:00:55.879Z,98232.86
2018-12-19T05:03:59.116Z,98242.11
2018-12-19T05:07:02.381Z,98239.33
2018-12-19T05:10:12.154Z,98222.58
2018-12-19T05:13:16.792Z,98217.42
2018-12-19T05:16:20.104Z,98209.91
2018-12-19T05:19:23.330Z,98222.03
2018-12-19T05:22:26.619Z,98212.74
2018-12-19T05:25:29.822Z,98223.54
2018-12-19T05:28:33.042Z,98224.78
2018-12-19T05:31:36.264Z,98226.19
2018-12-19T05:34:39.509Z,98227.59
2018-12-19T05:37:42.768Z,98226.00
2018-12-19T05:40:46.021Z,98215.44
2018-12-19T05:43:49.236Z,98208.73
2018-12-19T05:46:52.488Z,98225.53
2018-12-19T05:49:56.051Z,98235.39
2018-12-19T05:52:59.376Z,98235.23
2018-12-19T05:56:02.692Z,98244.36
2018-12-19T05:59:05.912Z,98238.59
2018-12-19T06:02:09.145Z,98239.09
2018-12-19T06:05:12.370Z,98239.75
2018-12-19T06:08:15.601Z,98243.61
2018-12-19T06:11:18.857Z,98253.94
2018-12-19T06:14:22.178Z,98248.20
2018-12-19T06:17:25.417Z,98253.13
2018-12-19T06:20:28.654Z,98250.47
2018-12-19T06:23:31.881Z,98248.25
2018-12-19T06:26:35.106Z,98253.90
2018-12-19T06:29:38.367Z,98267.70
2018-12-19T06:32:41.603Z,98257.20
2018-12-19T06:35:44.828Z,98255.92
2018-12-19T06:38:48.060Z,98264.81
2018-12-19T06:41:51.308Z,98252.95
2018-12-19T06:44:54.528Z,98251.48
2018-12-19T06:47:57.812Z,98253.00
2018-12-19T06:51:01.049Z,98252.69
2018-12-19T06:54:04.292Z,98247.36
2018-12-19T06:57:07.541Z,98263.84
2018-12-19T07:00:10.825Z,98259.74
2018-12-19T07:03:14.180Z,98255.48
2018-12-19T07:06:17.466Z,98243.81
2018-12-19T07:09:20.750Z,98249.09
2018-12-19T07:12:23.985Z,98249.69
2018-12-19T07:15:27.301Z,98248.20
2018-12-19T07:18:30.519Z,98258.30
2018-12-19T07:21:33.775Z,98250.14
2018-12-19T07:24:36.973Z,98265.66
2018-12-19T07:27:40.196Z,98264.22
2018-12-19T07:30:43.421Z,98276.92
2018-12-19T07:33:46.757Z,98280.02
2018-12-19T07:36:49.977Z,98284.97
2018-12-19T07:39:53.193Z,98288.48
2018-12-19T07:42:56.453Z,98285.48
2018-12-19T07:45:59.697Z,98283.89
2018-12-19T07:49:02.924Z,98289.71
2018-12-19T07:52:06.181Z,98294.27
2018-12-19T07:55:09.431Z,98293.11
2018-12-19T07:58:12.724Z,98289.13
2018-12-19T08:01:17.386Z,98294.45
2018-12-19T08:07:33.894Z,98295.91
2018-12-19T08:10:37.120Z,98295.99
2018-12-19T08:13:40.436Z,98292.25
2018-12-19T08:16:43.712Z,98301.95
2018-12-19T08:19:46.938Z,98301.44
2018-12-19T08:22:50.190Z,98304.30
2018-12-19T08:25:53.421Z,98305.62
2018-12-19T08:28:56.652Z,98306.32
2018-12-19T08:31:59.892Z,98308.00
2018-12-19T08:35:03.587Z,98303.52
2018-12-19T08:38:06.856Z,98300.78
2018-12-19T08:41:10.091Z,98300.46
2018-12-19T08:44:13.342Z,98302.33
2018-12-19T08:47:16.579Z,98300.72
2018-12-19T08:50:19.824Z,98300.30
2018-12-19T08:53:23.069Z,98292.03
2018-12-19T08:56:26.317Z,98304.72
2018-12-19T08:59:29.564Z,98301.48
2018-12-19T09:02:32.795Z,98295.58
2018-12-19T09:05:36.016Z,98295.11
2018-12-19T09:08:39.253Z,98308.30
2018-12-19T09:11:42.478Z,98296.09
2018-12-19T09:14:45.802Z,98298.34
2018-12-19T09:17:49.013Z,98300.44
2018-12-19T09:20:52.261Z,98305.67
2018-12-19T09:23:55.489Z,98315.33
2018-12-19T09:26:58.785Z,98305.30
2018-12-19T09:30:02.052Z,98300.69
2018-12-19T09:33:05.384Z,98301.20
2018-12-19T09:36:08.696Z,98300.75
2018-12-19T09:39:11.928Z,98300.45
2018-12-19T09:42:15.156Z,98308.42
2018-12-19T09:45:18.404Z,98301.17
2018-12-19T09:48:21.631Z,98302.02
2018-12-19T09:51:24.960Z,98296.38
2018-12-19T09:54:28.285Z,98297.30
2018-12-19T09:57:31.534Z,98299.70
2018-12-19T10:00:34.756Z,98294.34
2018-12-19T10:03:38.085Z,98298.55
2018-12-19T10:06:41.327Z,98288.48
2018-12-19T10:09:44.566Z,98286.09
2018-12-19T10:12:47.792Z,98286.44
2018-12-19T10:15:51.025Z,98275.41
2018-12-19T10:18:54.254Z,98275.78
2018-12-19T10:21:57.485Z,98274.32
2018-12-19T10:25:06.717Z,98279.77
2018-12-19T10:28:09.976Z,98283.67
2018-12-19T10:31:13.242Z,98275.46
2018-12-19T10:34:16.566Z,98263.40
2018-12-19T10:37:19.796Z,98257.43
2018-12-19T10:40:23.133Z,98255.86
2018-12-19T10:43:26.399Z,98251.36
2018-12-19T10:46:29.639Z,98250.55
2018-12-19T10:49:32.928Z,98243.16
2018-12-19T10:52:36.136Z,98236.58
2018-12-19T10:55:39.385Z,98241.22
2018-12-19T10:58:42.617Z,98235.06
2018-12-19T11:01:45.844Z,98236.55
2018-12-19T11:04:49.074Z,98234.17
2018-12-19T11:07:52.313Z,98230.91
2018-12-19T11:10:55.621Z,98230.33
2018-12-19T11:13:58.863Z,98225.27
2018-12-19T11:17:02.112Z,98226.10
2018-12-19T11:20:09.148Z,98212.78
2018-12-19T11:23:12.396Z,98215.45
2018-12-19T11:26:15.982Z,98213.44
2018-12-19T11:29:19.211Z,98207.28
2018-12-19T11:32:22.476Z,98201.97
2018-12-19T11:35:25.711Z,98201.39
2018-12-19T11:38:28.947Z,98198.73
2018-12-19T11:41:38.773Z,98198.25
2018-12-19T11:44:37.384Z,98206.47
2018-12-19T11:47:40.696Z,98201.20
2018-12-19T11:50:43.904Z,98197.38
2018-12-19T11:53:47.162Z,98192.98
2018-12-19T11:56:50.413Z,98181.41
2018-12-19T11:59:53.649Z,98171.95
2018-12-19T12:02:56.880Z,98180.63
2018-12-19T12:06:00.108Z,98182.08
2018-12-19T12:09:05.814Z,98173.13
2018-12-19T12:12:09.061Z,98176.36
2018-12-19T12:15:12.291Z,98170.73
2018-12-19T12:18:15.519Z,98172.41
2018-12-19T12:21:18.747Z,98164.77
2018-12-19T12:24:22.002Z,98165.14
2018-12-19T12:27:25.216Z,98157.94
2018-12-19T12:30:28.443Z,98155.27
2018-12-19T12:33:31.669Z,98156.09
2018-12-19T12:36:34.933Z,98158.44
2018-12-19T12:39:38.367Z,98146.27
2018-12-19T12:42:41.592Z,98143.09
2018-12-19T12:45:44.848Z,98147.08
2018-12-19T12:48:48.108Z,98153.48
2018-12-19T12:51:51.470Z,98147.34
2018-12-19T12:54:54.678Z,98139.86
2018-12-19T12:57:57.936Z,98135.01
2018-12-19T13:01:01.190Z,98129.09
2018-12-19T13:04:04.452Z,98130.36
2018-12-19T13:07:07.673Z,98140.23
2018-12-19T13:10:12.848Z,98136.64
2018-12-19T13:13:16.086Z,98128.83
2018-12-19T13:16:19.317Z,98128.58
2018-12-19T13:19:22.561Z,98129.03
2018-12-19T13:22:25.782Z,98110.81
2018-12-19T13:25:29.097Z,98123.29
2018-12-19T13:28:32.327Z,98112.03
2018-12-19T13:31:35.665Z,98103.77
2018-12-19T13:34:38.889Z,98101.86
2018-12-19T13:37:42.134Z,98100.78
2018-12-19T13:40:45.392Z,98099.70
2018-12-19T13:43:48.649Z,98100.42
2018-12-19T13:46:51.872Z,98103.13
2018-12-19T13:49:55.173Z,98105.59
2018-12-19T13:52:58.404Z,98094.02
2018-12-19T13:56:01.634Z,98092.12
2018-12-19T13:59:04.915Z,98091.05
2018-12-19T14:02:08.221Z,98082.46
2018-12-19T14:05:11.448Z,98079.03
2018-12-19T14:08:14.760Z,98080.98
2018-12-19T14:11:17.985Z,98067.27
2018-12-19T14:14:21.216Z,98066.46
2018-12-19T14:17:24.467Z,98066.41
2018-12-19T14:20:27.725Z,98071.22
2018-12-19T14:23:30.956Z,98067.02
2018-12-19T14:26:34.227Z,98068.05
2018-12-19T14:29:37.506Z,98070.30
2018-12-19T14:32:40.786Z,98064.20
2018-12-19T14:35:44.025Z,98062.89
2018-12-19T14:38:47.371Z,98075.73
2018-12-19T14:41:50.678Z,98070.20
2018-12-19T14:44:53.891Z,98075.95
2018-12-19T14:47:57.152Z,98076.00
2018-12-19T14:51:00.630Z,98080.40
2018-12-19T14:54:04.016Z,98078.25
2018-12-19T14:57:07.239Z,98076.92
2018-12-19T15:00:10.968Z,98070.36
2018-12-19T15:03:14.196Z,98061.35
2018-12-19T15:06:17.436Z,98061.35
2018-12-19T15:09:20.761Z,98048.81
2018-12-19T15:12:25.950Z,98054.12
2018-12-19T15:15:29.217Z,98044.72
2018-12-19T15:18:32.504Z,98041.20
2018-12-19T15:21:35.775Z,98045.14
2018-12-19T15:24:38.988Z,98047.93
2018-12-19T15:27:42.236Z,98059.91
2018-12-19T15:30:45.470Z,98062.13
2018-12-19T15:33:48.777Z,98063.73
2018-12-19T15:36:51.988Z,98063.47
2018-12-19T15:39:55.226Z,98051.23
2018-12-19T15:42:58.444Z,98054.77
2018-12-19T15:46:01.704Z,98052.92
2018-12-19T15:49:04.976Z,98044.08
2018-12-19T15:52:08.255Z,98043.60
2018-12-19T15:55:11.460Z,98053.02
2018-12-19T15:58:14.745Z,98058.34
2018-12-19T16:01:17.960Z,98055.11
2018-12-19T16:04:21.237Z,98051.73
2018-12-19T16:07:24.439Z,98061.65
2018-12-19T16:10:27.813Z,98059.71
2018-12-19T16:13:31.039Z,98062.41
2018-12-19T16:16:34.280Z,98061.56
2018-12-19T16:19:37.513Z,98066.36
2018-12-19T16:22:40.810Z,98064.47
2018-12-19T16:25:44.051Z,98071.38
2018-12-19T16:28:47.278Z,98065.53
2018-12-19T16:31:50.505Z,98064.78
2018-12-19T16:34:53.733Z,98066.30
2018-12-19T16:37:56.956Z,98069.22
2018-12-19T16:41:00.205Z,98067.75
2018-12-19T16:44:03.464Z,98070.95
2018-12-19T16:47:06.693Z,98072.45
2018-12-19T16:50:09.932Z,98070.91
2018-12-19T16:53:13.157Z,98082.93
2018-12-19T16:56:16.391Z,98075.92
2018-12-19T16:59:19.620Z,98079.09
2018-12-19T17:02:22.873Z,98081.49
2018-12-19T17:05:26.113Z,98085.34
2018-12-19T17:08:29.331Z,98084.58
2018-12-19T17:11:32.555Z,98086.67
2018-12-19T17:14:35.789Z,98080.88
2018-12-19T17:17:39.007Z,98087.89
2018-12-19T17:20:42.237Z,98084.42
2018-12-19T17:23:45.452Z,98087.37
2018-12-19T17:26:48.680Z,98089.28
2018-12-19T17:29:51.953Z,98079.31
2018-12-19T17:32:55.281Z,98083.86
2018-12-19T17:35:58.504Z,98086.77
2018-12-19T17:39:01.812Z,98092.30
2018-12-19T17:42:05.057Z,98096.81
2018-12-19T17:45:08.457Z,98100.80
2018-12-19T17:48:11.705Z,98106.11
2018-12-19T17:51:14.916Z,98109.84
2018-12-19T17:54:18.157Z,98118.44
2018-12-19T17:57:21.501Z,98122.17
2018-12-19T18:00:24.729Z,98117.02
2018-12-19T18:03:27.980Z,98122.79
2018-12-19T18:06:31.214Z,98121.70
2018-12-19T18:09:34.459Z,98126.83
2018-12-19T18:12:37.770Z,98124.18
2018-12-19T18:15:41.011Z,98123.66
2018-12-19T18:18:44.229Z,98118.95
2018-12-19T18:21:47.493Z,98110.45
2018-12-19T18:24:50.753Z,98108.58
2018-12-19T18:27:53.992Z,98110.98
2018-12-19T18:30:57.225Z,98112.61
2018-12-19T18:34:00.449Z,98106.55
2018-12-19T18:37:03.733Z,98114.58
2018-12-19T18:40:07.120Z,98116.93
2018-12-19T18:43:13.051Z,98114.08
2018-12-19T18:46:15.629Z,98118.36
2018-12-19T18:49:18.874Z,98110.78
2018-12-19T18:52:22.102Z,98107.17
2018-12-19T18:55:25.467Z,98099.80
2018-12-19T18:58:28.665Z,98094.55
2018-12-19T19:01:31.984Z,98099.14
2018-12-19T19:04:35.356Z,98097.98
2018-12-19T19:07:38.568Z,98088.21
2018-12-19T19:10:41.894Z,98086.14
2018-12-19T19:13:45.161Z,98081.95
2018-12-19T19:16:48.422Z,98073.70
2018-12-19T19:19:51.676Z,98073.66
2018-12-19T19:22:54.902Z,98073.51
2018-12-19T19:25:58.163Z,98068.95
2018-12-19T19:29:01.371Z,98072.95
2018-12-19T19:32:04.651Z,98078.65
2018-12-19T19:35:07.916Z,98075.49
2018-12-19T19:38:11.184Z,98073.93
2018-12-19T19:41:14.494Z,98070.71
2018-12-19T19:44:17.812Z,98071.84
2018-12-19T19:47:21.013Z,98062.02
2018-12-19T19:50:24.307Z,98072.95
2018-12-19T19:53:27.514Z,98061.50
2018-12-19T19:56:30.795Z,98064.52
2018-12-19T19:59:34.000Z,98063.50
2018-12-19T20:02:37.245Z,98062.19
2018-12-19T20:05:40.492Z,98067.86
2018-12-19T20:08:43.756Z,98069.43
2018-12-19T20:11:46.989Z,98073.43
2018-12-19T20:14:50.306Z,98075.81
2018-12-19T20:17:53.529Z,98075.08
2018-12-19T20:20:56.773Z,98071.08
2018-12-19T20:24:00.006Z,98080.66
2018-12-19T20:27:03.222Z,98067.31
2018-12-19T20:30:09.319Z,98067.81
2018-12-19T20:33:12.591Z,98058.39
2018-12-19T20:36:15.816Z,98061.93
2018-12-19T20:39:19.058Z,98064.38
2018-12-19T20:42:22.303Z,98063.81
2018-12-19T20:45:25.577Z,98058.50
2018-12-19T20:48:28.820Z,98061.17
2018-12-19T20:51:32.048Z,98060.33
2018-12-19T20:54:35.269Z,98057.66
2018-12-19T20:57:38.518Z,98065.87
2018-12-19T21:00:41.864Z,98062.92
2018-12-19T21:03:45.337Z,98062.11
2018-12-19T21:06:48.714Z,98063.94
2018-12-19T21:09:51.940Z,98061.47
2018-12-19T21:12:55.258Z,98057.79
2018-12-19T21:15:58.522Z,98070.05
2018-12-19T21:19:01.734Z,98064.40
2018-12-19T21:22:09.026Z,98060.02
2018-12-19T21:25:12.238Z,98067.06
2018-12-19T21:28:15.466Z,98056.08
2018-12-19T21:31:18.717Z,98057.37
2018-12-19T21:34:21.944Z,98051.50
2018-12-19T21:37:25.186Z,98048.59
2018-12-19T21:40:28.517Z,98044.63
2018-12-19T21:43:31.827Z,98050.42
2018-12-19T21:46:35.080Z,98047.23
2018-12-19T21:49:38.338Z,98035.47
2018-12-19T21:52:41.703Z,98037.81
2018-12-19T21:55:45.074Z,98032.97
2018-12-19T21:58:48.445Z,98032.06
2018-12-19T22:01:51.759Z,98033.63
2018-12-19T22:04:55.004Z,98035.31
2018-12-19T22:07:58.220Z,98046.78
2018-12-19T22:11:01.520Z,98047.60
2018-12-19T22:14:04.900Z,98055.41
2018-12-19T22:20:47.574Z,98060.18
2018-12-19T22:23:50.799Z,98055.30
2018-12-19T22:26:54.133Z,98059.00
2018-12-19T22:29:57.435Z,98052.64
2018-12-19T22:33:00.644Z,98053.16
2018-12-19T22:36:03.919Z,98059.00
2018-12-19T22:42:24.892Z,98047.08
2018-12-19T22:45:28.228Z,98052.96
2018-12-19T22:48:31.547Z,98046.07
2018-12-19T22:51:34.836Z,98047.63
2018-12-19T22:54:38.084Z,98042.82
2018-12-19T22:57:41.457Z,98046.27
2018-12-19T23:00:51.937Z,98035.61
2018-12-19T23:04:00.759Z,98043.56
2018-12-19T23:07:04.210Z,98050.30
2018-12-19T23:10:07.617Z,98053.97
2018-12-19T23:13:10.857Z,98052.96
2018-12-19T23:16:14.131Z,98059.69
2018-12-19T23:19:17.447Z,98059.75
2018-12-19T23:22:20.748Z,98063.50
2018-12-19T23:25:24.135Z,98063.40
2018-12-19T23:28:27.369Z,98065.25
2018-12-19T23:31:30.728Z,98059.40
2018-12-19T23:34:34.201Z,98064.92
2018-12-19T23:37:37.593Z,98059.16
2018-12-19T23:40:40.934Z,98060.45
2018-12-19T23:43:44.232Z,98056.94
2018-12-19T23:46:47.673Z,98056.68
2018-12-19T23:49:51.005Z,98062.83
2018-12-19T23:52:54.225Z,98060.72
2018-12-19T23:55:57.463Z,98063.41
2018-12-19T23:59:00.812Z,98061.79
